sensor_id;sensor_type;location;lat;lon;timestamp;pressure;altitude;pressure_sealevel;temperature;humidity
39075;BME280;24826;52.070;20.970;2023-03-03T00:01:35;61543.81;;;-147.04;95.06
39075;BME280;24826;52.070;20.970;2023-03-03T00:04:19;61551.78;;;-147.04;94.34
39075;BME280;24826;52.070;20.970;2023-03-03T00:07:04;61543.81;;;-147.04;95.02
39075;BME280;24826;52.070;20.970;2023-03-03T00:09:49;61551.78;;;-147.04;95.52
39075;BME280;24826;52.070;20.970;2023-03-03T00:12:34;61543.81;;;-147.04;93.99
39075;BME280;24826;52.070;20.970;2023-03-03T00:15:24;61537.84;;;-147.04;95.93
39075;BME280;24826;52.070;20.970;2023-03-03T00:18:32;61549.78;;;-147.04;96.50
39075;BME280;24826;52.070;20.970;2023-03-03T00:21:34;61535.88;;;-147.04;94.74
39075;BME280;24826;52.070;20.970;2023-03-03T00:24:36;61543.81;;;-147.04;95.52
39075;BME280;24826;52.070;20.970;2023-03-03T00:27:34;61575.63;;;-147.04;95.77
39075;BME280;24826;52.070;20.970;2023-03-03T00:30:24;61535.88;;;-147.04;93.94
39075;BME280;24826;52.070;20.970;2023-03-03T00:33:29;61514.00;;;-147.04;92.96
39075;BME280;24826;52.070;20.970;2023-03-03T00:36:29;61523.94;;;-147.04;93.86
39075;BME280;24826;52.070;20.970;2023-03-03T00:39:28;61551.78;;;-147.04;94.01
39075;BME280;24826;52.070;20.970;2023-03-03T00:42:16;61543.81;;;-147.04;96.13
39075;BME280;24826;52.070;20.970;2023-03-03T00:45:00;61539.84;;;-147.04;95.24
39075;BME280;24826;52.070;20.970;2023-03-03T00:47:45;61537.84;;;-147.04;96.41
39075;BME280;24826;52.070;20.970;2023-03-03T00:50:33;61551.78;;;-147.04;96.79
39075;BME280;24826;52.070;20.970;2023-03-03T00:53:20;61523.94;;;-147.04;93.38
39075;BME280;24826;52.070;20.970;2023-03-03T00:56:04;61551.78;;;-147.04;94.98
39075;BME280;24826;52.070;20.970;2023-03-03T00:58:49;61541.81;;;-147.04;95.84
39075;BME280;24826;52.070;20.970;2023-03-03T01:01:33;61521.94;;;-147.04;94.40
39075;BME280;24826;52.070;20.970;2023-03-03T01:04:18;61508.03;;;-147.04;93.88
39075;BME280;24826;52.070;20.970;2023-03-03T01:07:02;61504.03;;;-147.04;93.31
39075;BME280;24826;52.070;20.970;2023-03-03T01:09:47;61527.91;;;-147.04;95.16
39075;BME280;24826;52.070;20.970;2023-03-03T01:12:31;61488.13;;;-147.04;93.46
39075;BME280;24826;52.070;20.970;2023-03-03T01:15:16;61533.88;;;-147.04;94.14
39075;BME280;24826;52.070;20.970;2023-03-03T01:18:01;61510.00;;;-147.04;94.10
39075;BME280;24826;52.070;20.970;2023-03-03T01:20:45;61500.06;;;-147.04;94.89
39075;BME280;24826;52.070;20.970;2023-03-03T01:23:29;61525.91;;;-147.04;94.42
39075;BME280;24826;52.070;20.970;2023-03-03T01:26:14;61531.88;;;-147.04;94.95
39075;BME280;24826;52.070;20.970;2023-03-03T01:28:58;61519.94;;;-147.04;95.33
39075;BME280;24826;52.070;20.970;2023-03-03T01:31:43;61514.00;;;-147.04;94.71
39075;BME280;24826;52.070;20.970;2023-03-03T01:34:27;61541.81;;;-147.04;96.62
39075;BME280;24826;52.070;20.970;2023-03-03T01:37:11;61535.88;;;-147.04;94.86
39075;BME280;24826;52.070;20.970;2023-03-03T01:39:56;61500.06;;;-147.04;94.51
39075;BME280;24826;52.070;20.970;2023-03-03T01:42:41;61547.78;;;-147.04;93.94
39075;BME280;24826;52.070;20.970;2023-03-03T01:46:18;61515.97;;;-147.04;93.55
39075;BME280;24826;52.070;20.970;2023-03-03T01:48:48;61512.00;;;-147.04;93.22
39075;BME280;24826;52.070;20.970;2023-03-03T01:51:37;61569.66;;;-147.04;96.03
39075;BME280;24826;52.070;20.970;2023-03-03T01:54:29;61551.78;;;-147.04;95.87
39075;BME280;24826;52.070;20.970;2023-03-03T01:57:22;61549.78;;;-147.04;96.49
39075;BME280;24826;52.070;20.970;2023-03-03T02:00:11;61529.91;;;-147.04;95.57
39075;BME280;24826;52.070;20.970;2023-03-03T02:02:56;61555.75;;;-147.04;95.59
39075;BME280;24826;52.070;20.970;2023-03-03T02:05:40;61559.72;;;-147.04;95.30
39075;BME280;24826;52.070;20.970;2023-03-03T02:08:29;61543.81;;;-147.04;95.41
39075;BME280;24826;52.070;20.970;2023-03-03T02:11:20;61547.78;;;-147.04;96.04
39075;BME280;24826;52.070;20.970;2023-03-03T02:14:05;61553.75;;;-147.04;95.98
39075;BME280;24826;52.070;20.970;2023-03-03T02:16:49;61563.69;;;-147.04;95.41
39075;BME280;24826;52.070;20.970;2023-03-03T02:19:42;61561.72;;;-147.04;95.52
39075;BME280;24826;52.070;20.970;2023-03-03T02:22:36;61512.00;;;-147.04;95.85
39075;BME280;24826;52.070;20.970;2023-03-03T02:25:32;61510.00;;;-147.04;95.84
39075;BME280;24826;52.070;20.970;2023-03-03T02:28:17;61553.75;;;-147.04;95.72
39075;BME280;24826;52.070;20.970;2023-03-03T02:31:04;61575.63;;;-147.04;96.37
39075;BME280;24826;52.070;20.970;2023-03-03T02:33:51;61498.09;;;-147.04;94.94
39075;BME280;24826;52.070;20.970;2023-03-03T02:36:37;61547.78;;;-147.04;94.31
39075;BME280;24826;52.070;20.970;2023-03-03T02:39:23;61547.78;;;-147.04;93.93
39075;BME280;24826;52.070;20.970;2023-03-03T02:42:15;61539.84;;;-147.04;94.61
39075;BME280;24826;52.070;20.970;2023-03-03T02:45:01;61551.78;;;-147.04;94.49
39075;BME280;24826;52.070;20.970;2023-03-03T02:47:49;61531.88;;;-147.04;95.29
39075;BME280;24826;52.070;20.970;2023-03-03T02:50:34;61543.81;;;-147.04;96.57
39075;BME280;24826;52.070;20.970;2023-03-03T02:53:18;61531.88;;;-147.04;96.59
39075;BME280;24826;52.070;20.970;2023-03-03T02:56:03;61535.88;;;-147.04;96.21
39075;BME280;24826;52.070;20.970;2023-03-03T02:58:47;61531.88;;;-147.04;96.73
39075;BME280;24826;52.070;20.970;2023-03-03T03:01:32;61577.63;;;-147.04;98.11
39075;BME280;24826;52.070;20.970;2023-03-03T03:04:22;61525.91;;;-147.04;98.87
39075;BME280;24826;52.070;20.970;2023-03-03T03:07:07;61525.91;;;-147.04;98.85
39075;BME280;24826;52.070;20.970;2023-03-03T03:09:51;61515.97;;;-147.04;99.62
39075;BME280;24826;52.070;20.970;2023-03-03T03:12:35;61561.72;;;-147.04;98.15
39075;BME280;24826;52.070;20.970;2023-03-03T03:15:20;61537.84;;;-147.04;97.93
39075;BME280;24826;52.070;20.970;2023-03-03T03:18:04;61519.94;;;-147.04;96.34
39075;BME280;24826;52.070;20.970;2023-03-03T03:20:48;61555.75;;;-147.04;98.32
39075;BME280;24826;52.070;20.970;2023-03-03T03:23:34;61498.09;;;-147.04;96.62
39075;BME280;24826;52.070;20.970;2023-03-03T03:26:18;61527.91;;;-147.04;97.36
39075;BME280;24826;52.070;20.970;2023-03-03T03:29:04;61527.91;;;-147.04;97.37
39075;BME280;24826;52.070;20.970;2023-03-03T03:31:48;61541.81;;;-147.04;96.31
39075;BME280;24826;52.070;20.970;2023-03-03T03:34:33;61486.16;;;-147.04;95.74
39075;BME280;24826;52.070;20.970;2023-03-03T03:37:17;61523.94;;;-147.04;96.31
39075;BME280;24826;52.070;20.970;2023-03-03T03:40:02;61569.66;;;-147.04;97.62
39075;BME280;24826;52.070;20.970;2023-03-03T03:42:47;61508.03;;;-147.04;97.09
39075;BME280;24826;52.070;20.970;2023-03-03T03:45:32;61515.97;;;-147.04;96.38
39075;BME280;24826;52.070;20.970;2023-03-03T03:48:16;61515.97;;;-147.04;97.74
39075;BME280;24826;52.070;20.970;2023-03-03T03:51:03;61551.78;;;-147.04;97.70
39075;BME280;24826;52.070;20.970;2023-03-03T03:53:47;61539.84;;;-147.04;97.48
39075;BME280;24826;52.070;20.970;2023-03-03T03:56:32;61533.88;;;-147.04;99.59
39075;BME280;24826;52.070;20.970;2023-03-03T03:59:17;61545.81;;;-147.04;100.00
39075;BME280;24826;52.070;20.970;2023-03-03T04:02:01;61531.88;;;-147.04;98.57
39075;BME280;24826;52.070;20.970;2023-03-03T04:04:46;61539.84;;;-147.04;98.92
39075;BME280;24826;52.070;20.970;2023-03-03T04:07:30;61527.91;;;-147.04;100.00
39075;BME280;24826;52.070;20.970;2023-03-03T04:10:15;61543.81;;;-147.04;100.00
39075;BME280;24826;52.070;20.970;2023-03-03T04:13:01;61527.91;;;-147.04;99.52
39075;BME280;24826;52.070;20.970;2023-03-03T04:15:45;61527.91;;;-147.04;98.83
39075;BME280;24826;52.070;20.970;2023-03-03T04:18:29;61517.97;;;-147.04;98.07
39075;BME280;24826;52.070;20.970;2023-03-03T04:21:14;61551.78;;;-147.04;96.23
39075;BME280;24826;52.070;20.970;2023-03-03T04:23:59;61543.81;;;-147.04;97.25
39075;BME280;24826;52.070;20.970;2023-03-03T04:26:43;61545.81;;;-147.04;97.70
39075;BME280;24826;52.070;20.970;2023-03-03T04:29:28;61515.97;;;-147.04;96.87
39075;BME280;24826;52.070;20.970;2023-03-03T04:32:12;61557.75;;;-147.04;96.60
39075;BME280;24826;52.070;20.970;2023-03-03T04:34:56;61529.91;;;-147.04;97.12
39075;BME280;24826;52.070;20.970;2023-03-03T04:37:41;61543.81;;;-147.04;97.24
39075;BME280;24826;52.070;20.970;2023-03-03T04:40:25;61515.97;;;-147.04;96.19
39075;BME280;24826;52.070;20.970;2023-03-03T04:43:10;61527.91;;;-147.04;98.02
39075;BME280;24826;52.070;20.970;2023-03-03T04:45:55;61543.81;;;-147.04;95.89
39075;BME280;24826;52.070;20.970;2023-03-03T04:48:39;61514.00;;;-147.04;98.21
39075;BME280;24826;52.070;20.970;2023-03-03T04:51:24;61474.22;;;-147.04;97.83
39075;BME280;24826;52.070;20.970;2023-03-03T04:54:08;61517.97;;;-147.04;97.34
39075;BME280;24826;52.070;20.970;2023-03-03T04:56:53;61508.03;;;-147.04;99.15
39075;BME280;24826;52.070;20.970;2023-03-03T04:59:37;61523.94;;;-147.04;97.09
39075;BME280;24826;52.070;20.970;2023-03-03T05:02:21;61512.00;;;-147.04;98.63
39075;BME280;24826;52.070;20.970;2023-03-03T05:05:06;61527.91;;;-147.04;97.40
39075;BME280;24826;52.070;20.970;2023-03-03T05:07:53;61547.78;;;-147.04;98.37
39075;BME280;24826;52.070;20.970;2023-03-03T05:10:37;61523.94;;;-147.04;97.44
39075;BME280;24826;52.070;20.970;2023-03-03T05:13:21;61525.91;;;-147.04;98.96
39075;BME280;24826;52.070;20.970;2023-03-03T05:16:06;61573.66;;;-147.04;97.34
39075;BME280;24826;52.070;20.970;2023-03-03T05:18:50;61543.81;;;-147.04;97.37
39075;BME280;24826;52.070;20.970;2023-03-03T05:21:34;61496.09;;;-147.04;97.24
39075;BME280;24826;52.070;20.970;2023-03-03T05:24:19;61531.88;;;-147.04;97.71
39075;BME280;24826;52.070;20.970;2023-03-03T05:27:03;61502.06;;;-147.04;98.27
39075;BME280;24826;52.070;20.970;2023-03-03T05:29:48;61535.88;;;-147.04;98.67
39075;BME280;24826;52.070;20.970;2023-03-03T05:32:33;61531.88;;;-147.04;97.59
39075;BME280;24826;52.070;20.970;2023-03-03T05:35:18;61543.81;;;-147.04;97.80
39075;BME280;24826;52.070;20.970;2023-03-03T05:38:03;61549.78;;;-147.04;98.67
39075;BME280;24826;52.070;20.970;2023-03-03T05:40:49;61541.81;;;-147.04;98.67
39075;BME280;24826;52.070;20.970;2023-03-03T05:43:33;61529.91;;;-147.04;99.42
39075;BME280;24826;52.070;20.970;2023-03-03T05:46:17;61492.13;;;-147.04;98.78
39075;BME280;24826;52.070;20.970;2023-03-03T05:49:02;61541.81;;;-147.04;99.75
39075;BME280;24826;52.070;20.970;2023-03-03T05:51:46;61579.59;;;-147.04;99.76
39075;BME280;24826;52.070;20.970;2023-03-03T05:54:30;61603.47;;;-147.04;99.23
39075;BME280;24826;52.070;20.970;2023-03-03T05:57:15;61635.28;;;-147.04;99.07
39075;BME280;24826;52.070;20.970;2023-03-03T05:59:59;61603.47;;;-147.04;99.98
39075;BME280;24826;52.070;20.970;2023-03-03T06:02:44;61569.66;;;-147.04;99.84
39075;BME280;24826;52.070;20.970;2023-03-03T06:05:28;61617.38;;;-147.04;100.00
39075;BME280;24826;52.070;20.970;2023-03-03T06:08:13;61583.59;;;-147.04;100.00
39075;BME280;24826;52.070;20.970;2023-03-03T06:10:57;61607.44;;;-147.04;100.00
39075;BME280;24826;52.070;20.970;2023-03-03T06:13:42;61597.50;;;-147.04;100.00
39075;BME280;24826;52.070;20.970;2023-03-03T06:16:26;61617.38;;;-147.04;100.00
39075;BME280;24826;52.070;20.970;2023-03-03T06:19:10;61603.47;;;-147.04;100.00
39075;BME280;24826;52.070;20.970;2023-03-03T06:21:54;61575.63;;;-147.04;100.00
39075;BME280;24826;52.070;20.970;2023-03-03T06:24:39;61587.56;;;-147.04;100.00
39075;BME280;24826;52.070;20.970;2023-03-03T06:27:23;61561.72;;;-147.04;100.00
39075;BME280;24826;52.070;20.970;2023-03-03T06:30:08;61571.66;;;-147.04;100.00
39075;BME280;24826;52.070;20.970;2023-03-03T06:32:53;61591.53;;;-147.04;100.00
39075;BME280;24826;52.070;20.970;2023-03-03T06:35:37;61543.81;;;-147.04;100.00
39075;BME280;24826;52.070;20.970;2023-03-03T06:38:22;61575.63;;;-147.04;100.00
39075;BME280;24826;52.070;20.970;2023-03-03T06:41:06;61595.53;;;-147.04;100.00
39075;BME280;24826;52.070;20.970;2023-03-03T06:43:51;61607.44;;;-147.04;100.00
39075;BME280;24826;52.070;20.970;2023-03-03T06:46:36;61607.44;;;-147.04;100.00
39075;BME280;24826;52.070;20.970;2023-03-03T06:49:20;61593.53;;;-147.04;100.00
39075;BME280;24826;52.070;20.970;2023-03-03T06:52:23;61567.69;;;-147.04;100.00
39075;BME280;24826;52.070;20.970;2023-03-03T06:55:16;61551.78;;;-147.04;100.00
39075;BME280;24826;52.070;20.970;2023-03-03T06:58:07;61515.97;;;-147.04;100.00
39075;BME280;24826;52.070;20.970;2023-03-03T07:03:40;61541.81;;;-147.04;100.00
39075;BME280;24826;52.070;20.970;2023-03-03T07:06:25;61559.72;;;-147.04;100.00
39075;BME280;24826;52.070;20.970;2023-03-03T07:09:26;61553.75;;;-147.04;100.00
39075;BME280;24826;52.070;20.970;2023-03-03T07:12:23;61543.81;;;-147.04;100.00
39075;BME280;24826;52.070;20.970;2023-03-03T07:15:16;61527.91;;;-147.04;100.00
39075;BME280;24826;52.070;20.970;2023-03-03T07:18:00;61589.56;;;-147.04;100.00
39075;BME280;24826;52.070;20.970;2023-03-03T07:20:45;61631.31;;;-147.04;100.00
39075;BME280;24826;52.070;20.970;2023-03-03T07:23:37;61583.59;;;-147.04;100.00
39075;BME280;24826;52.070;20.970;2023-03-03T07:26:30;61603.47;;;-147.04;100.00
39075;BME280;24826;52.070;20.970;2023-03-03T07:29:26;61567.69;;;-147.04;100.00
39075;BME280;24826;52.070;20.970;2023-03-03T07:41:12;61521.94;;;-147.04;100.00
39075;BME280;24826;52.070;20.970;2023-03-03T07:44:06;61531.88;;;-147.04;100.00
39075;BME280;24826;52.070;20.970;2023-03-03T07:46:55;61589.56;;;-147.04;100.00
39075;BME280;24826;52.070;20.970;2023-03-03T07:49:39;61589.56;;;-147.04;100.00
39075;BME280;24826;52.070;20.970;2023-03-03T07:52:41;61571.66;;;-147.04;100.00
39075;BME280;24826;52.070;20.970;2023-03-03T07:55:33;61567.69;;;-147.04;100.00
39075;BME280;24826;52.070;20.970;2023-03-03T07:58:22;61595.53;;;-147.04;100.00
39075;BME280;24826;52.070;20.970;2023-03-03T08:04:21;61601.47;;;-147.04;100.00
39075;BME280;24826;52.070;20.970;2023-03-03T08:07:17;61587.56;;;-147.04;100.00
39075;BME280;24826;52.070;20.970;2023-03-03T08:10:07;61575.63;;;-147.04;100.00
39075;BME280;24826;52.070;20.970;2023-03-03T08:16:02;61573.66;;;-147.04;100.00
39075;BME280;24826;52.070;20.970;2023-03-03T08:18:48;61573.66;;;-147.04;100.00
39075;BME280;24826;52.070;20.970;2023-03-03T08:21:34;61545.81;;;-147.04;100.00
39075;BME280;24826;52.070;20.970;2023-03-03T08:24:18;61525.91;;;-147.04;100.00
39075;BME280;24826;52.070;20.970;2023-03-03T08:27:02;61555.75;;;-147.04;100.00
39075;BME280;24826;52.070;20.970;2023-03-03T08:29:47;61599.50;;;-147.04;100.00
39075;BME280;24826;52.070;20.970;2023-03-03T08:32:33;61607.44;;;-147.04;100.00
39075;BME280;24826;52.070;20.970;2023-03-03T08:35:17;61591.53;;;-147.04;100.00
39075;BME280;24826;52.070;20.970;2023-03-03T08:38:02;61535.88;;;-147.04;100.00
39075;BME280;24826;52.070;20.970;2023-03-03T08:40:48;61615.41;;;-147.04;100.00
39075;BME280;24826;52.070;20.970;2023-03-03T08:43:32;61547.78;;;-147.04;100.00
39075;BME280;24826;52.070;20.970;2023-03-03T08:46:17;61533.88;;;-147.04;100.00
39075;BME280;24826;52.070;20.970;2023-03-03T08:49:01;61571.66;;;-147.04;100.00
39075;BME280;24826;52.070;20.970;2023-03-03T08:51:46;61549.78;;;-147.04;100.00
39075;BME280;24826;52.070;20.970;2023-03-03T08:54:31;61535.88;;;-147.04;100.00
39075;BME280;24826;52.070;20.970;2023-03-03T08:57:16;61577.63;;;-147.04;100.00
39075;BME280;24826;52.070;20.970;2023-03-03T09:00:00;61541.81;;;-147.04;100.00
39075;BME280;24826;52.070;20.970;2023-03-03T09:02:45;61545.81;;;-147.04;100.00
39075;BME280;24826;52.070;20.970;2023-03-03T09:05:30;61543.81;;;-147.04;100.00
39075;BME280;24826;52.070;20.970;2023-03-03T09:08:14;61555.75;;;-147.04;100.00
39075;BME280;24826;52.070;20.970;2023-03-03T09:10:59;61543.81;;;-147.04;100.00
39075;BME280;24826;52.070;20.970;2023-03-03T09:13:43;61517.97;;;-147.04;100.00
39075;BME280;24826;52.070;20.970;2023-03-03T09:16:33;61515.97;;;-147.04;100.00
39075;BME280;24826;52.070;20.970;2023-03-03T09:19:30;61512.00;;;-147.04;100.00
39075;BME280;24826;52.070;20.970;2023-03-03T09:22:23;61529.91;;;-147.04;100.00
39075;BME280;24826;52.070;20.970;2023-03-03T09:25:27;61555.75;;;-147.04;100.00
39075;BME280;24826;52.070;20.970;2023-03-03T09:28:28;61555.75;;;-147.04;100.00
39075;BME280;24826;52.070;20.970;2023-03-03T09:37:14;61535.88;;;-147.04;100.00
39075;BME280;24826;52.070;20.970;2023-03-03T09:40:29;61512.00;;;-147.04;100.00
39075;BME280;24826;52.070;20.970;2023-03-03T09:46:55;61573.66;;;-147.04;100.00
39075;BME280;24826;52.070;20.970;2023-03-03T09:53:15;61514.00;;;-147.04;100.00
39075;BME280;24826;52.070;20.970;2023-03-03T09:56:16;61529.91;;;-147.04;100.00
39075;BME280;24826;52.070;20.970;2023-03-03T10:05:43;61579.59;;;-147.04;100.00
39075;BME280;24826;52.070;20.970;2023-03-03T10:08:49;61539.84;;;-147.04;100.00
39075;BME280;24826;52.070;20.970;2023-03-03T10:11:47;61555.75;;;-147.04;100.00
39075;BME280;24826;52.070;20.970;2023-03-03T10:18:08;61535.88;;;-147.04;100.00
39075;BME280;24826;52.070;20.970;2023-03-03T10:24:27;61539.84;;;-147.04;100.00
39075;BME280;24826;52.070;20.970;2023-03-03T10:30:27;61531.88;;;-147.04;100.00
39075;BME280;24826;52.070;20.970;2023-03-03T10:39:14;61539.84;;;-147.04;100.00
39075;BME280;24826;52.070;20.970;2023-03-03T10:45:18;61521.94;;;-147.04;100.00
39075;BME280;24826;52.070;20.970;2023-03-03T10:54:13;61537.84;;;-147.04;100.00
39075;BME280;24826;52.070;20.970;2023-03-03T10:57:20;61525.91;;;-147.04;100.00
39075;BME280;24826;52.070;20.970;2023-03-03T11:03:25;61517.97;;;-147.04;100.00
39075;BME280;24826;52.070;20.970;2023-03-03T11:06:23;61551.78;;;-147.04;100.00
39075;BME280;24826;52.070;20.970;2023-03-03T11:12:56;61527.91;;;-147.04;100.00
39075;BME280;24826;52.070;20.970;2023-03-03T11:24:54;61551.78;;;-147.04;100.00
39075;BME280;24826;52.070;20.970;2023-03-03T11:31:09;61523.94;;;-147.04;100.00
39075;BME280;24826;52.070;20.970;2023-03-03T11:37:23;61519.94;;;-147.04;100.00
39075;BME280;24826;52.070;20.970;2023-03-03T11:40:15;61539.84;;;-147.04;100.00
39075;BME280;24826;52.070;20.970;2023-03-03T11:43:09;61537.84;;;-147.04;100.00
39075;BME280;24826;52.070;20.970;2023-03-03T11:46:00;61515.97;;;-147.04;100.00
39075;BME280;24826;52.070;20.970;2023-03-03T11:48:58;61531.88;;;-147.04;100.00
39075;BME280;24826;52.070;20.970;2023-03-03T11:54:49;61549.78;;;-147.04;100.00
39075;BME280;24826;52.070;20.970;2023-03-03T12:00:54;61506.03;;;-147.04;100.00
39075;BME280;24826;52.070;20.970;2023-03-03T12:03:52;61539.84;;;-147.04;100.00
39075;BME280;24826;52.070;20.970;2023-03-03T12:13:01;61474.22;;;-147.04;100.00
39075;BME280;24826;52.070;20.970;2023-03-03T12:22:01;61535.88;;;-147.04;100.00
39075;BME280;24826;52.070;20.970;2023-03-03T12:27:49;61531.88;;;-147.04;100.00
39075;BME280;24826;52.070;20.970;2023-03-03T12:40:13;61531.88;;;-147.04;100.00
39075;BME280;24826;52.070;20.970;2023-03-03T12:48:46;61535.88;;;-147.04;100.00
39075;BME280;24826;52.070;20.970;2023-03-03T12:57:48;61496.09;;;-147.04;100.00
39075;BME280;24826;52.070;20.970;2023-03-03T13:00:46;61551.78;;;-147.04;100.00
39075;BME280;24826;52.070;20.970;2023-03-03T13:06:38;61521.94;;;-147.04;100.00
39075;BME280;24826;52.070;20.970;2023-03-03T13:09:55;61510.00;;;-147.04;100.00
39075;BME280;24826;52.070;20.970;2023-03-03T13:12:49;61519.94;;;-147.04;100.00
39075;BME280;24826;52.070;20.970;2023-03-03T13:18:51;61523.94;;;-147.04;100.00
39075;BME280;24826;52.070;20.970;2023-03-03T13:21:49;61537.84;;;-147.04;100.00
39075;BME280;24826;52.070;20.970;2023-03-03T13:25:06;61500.06;;;-147.04;100.00
39075;BME280;24826;52.070;20.970;2023-03-03T13:27:58;61549.78;;;-147.04;100.00
39075;BME280;24826;52.070;20.970;2023-03-03T13:30:47;61543.81;;;-147.04;100.00
39075;BME280;24826;52.070;20.970;2023-03-03T13:33:36;61525.91;;;-147.04;100.00
39075;BME280;24826;52.070;20.970;2023-03-03T13:36:41;61533.88;;;-147.04;100.00
39075;BME280;24826;52.070;20.970;2023-03-03T13:39:39;61527.91;;;-147.04;100.00
39075;BME280;24826;52.070;20.970;2023-03-03T13:42:32;61525.91;;;-147.04;100.00
39075;BME280;24826;52.070;20.970;2023-03-03T13:45:30;61508.03;;;-147.04;100.00
39075;BME280;24826;52.070;20.970;2023-03-03T13:52:18;61498.09;;;-147.04;100.00
39075;BME280;24826;52.070;20.970;2023-03-03T13:54:52;61482.19;;;-147.04;100.00
39075;BME280;24826;52.070;20.970;2023-03-03T14:01:13;61480.19;;;-147.04;100.00
39075;BME280;24826;52.070;20.970;2023-03-03T14:04:09;61490.13;;;-147.04;100.00
39075;BME280;24826;52.070;20.970;2023-03-03T14:07:11;61504.03;;;-147.04;100.00
39075;BME280;24826;52.070;20.970;2023-03-03T14:10:08;61476.22;;;-147.04;100.00
39075;BME280;24826;52.070;20.970;2023-03-03T14:13:11;61512.00;;;-147.04;100.00
39075;BME280;24826;52.070;20.970;2023-03-03T14:16:20;61468.25;;;-147.04;100.00
39075;BME280;24826;52.070;20.970;2023-03-03T14:19:13;61484.16;;;-147.04;100.00
39075;BME280;24826;52.070;20.970;2023-03-03T14:25:16;61492.13;;;-147.04;100.00
39075;BME280;24826;52.070;20.970;2023-03-03T14:28:10;61517.97;;;-147.04;100.00
39075;BME280;24826;52.070;20.970;2023-03-03T14:30:57;61512.00;;;-147.04;100.00
39075;BME280;24826;52.070;20.970;2023-03-03T14:33:45;61484.16;;;-147.04;100.00
39075;BME280;24826;52.070;20.970;2023-03-03T14:36:41;61480.19;;;-147.04;100.00
39075;BME280;24826;52.070;20.970;2023-03-03T14:39:33;61476.22;;;-147.04;100.00
39075;BME280;24826;52.070;20.970;2023-03-03T14:42:38;61484.16;;;-147.04;100.00
39075;BME280;24826;52.070;20.970;2023-03-03T14:45:36;61480.19;;;-147.04;100.00
39075;BME280;24826;52.070;20.970;2023-03-03T14:48:22;61488.13;;;-147.04;100.00
39075;BME280;24826;52.070;20.970;2023-03-03T14:51:24;61484.16;;;-147.04;100.00
39075;BME280;24826;52.070;20.970;2023-03-03T14:54:20;61500.06;;;-147.04;100.00
39075;BME280;24826;52.070;20.970;2023-03-03T15:00:27;61502.06;;;-147.04;100.00
39075;BME280;24826;52.070;20.970;2023-03-03T15:03:22;61506.03;;;-147.04;100.00
39075;BME280;24826;52.070;20.970;2023-03-03T15:06:10;61502.06;;;-147.04;100.00
39075;BME280;24826;52.070;20.970;2023-03-03T15:08:56;61448.38;;;-147.04;100.00
39075;BME280;24826;52.070;20.970;2023-03-03T15:11:40;61480.19;;;-147.04;100.00
39075;BME280;24826;52.070;20.970;2023-03-03T15:14:34;61484.16;;;-147.04;100.00
39075;BME280;24826;52.070;20.970;2023-03-03T15:17:27;61456.31;;;-147.04;100.00
39075;BME280;24826;52.070;20.970;2023-03-03T15:20:41;61508.03;;;-147.04;100.00
39075;BME280;24826;52.070;20.970;2023-03-03T15:23:55;61492.13;;;-147.04;100.00
39075;BME280;24826;52.070;20.970;2023-03-03T15:26:43;61468.25;;;-147.04;100.00
39075;BME280;24826;52.070;20.970;2023-03-03T15:29:37;61500.06;;;-147.04;100.00
39075;BME280;24826;52.070;20.970;2023-03-03T15:38:37;61515.97;;;-147.04;100.00
39075;BME280;24826;52.070;20.970;2023-03-03T15:47:59;61508.03;;;-147.04;100.00
39075;BME280;24826;52.070;20.970;2023-03-03T15:57:16;61468.25;;;-147.04;100.00
39075;BME280;24826;52.070;20.970;2023-03-03T16:03:43;61504.03;;;-147.04;100.00
39075;BME280;24826;52.070;20.970;2023-03-03T16:19:19;61517.97;;;-147.04;100.00
39075;BME280;24826;52.070;20.970;2023-03-03T16:28:16;61502.06;;;-147.04;100.00
39075;BME280;24826;52.070;20.970;2023-03-03T16:39:59;61512.00;;;-147.04;100.00
39075;BME280;24826;52.070;20.970;2023-03-03T16:42:48;61476.22;;;-147.04;100.00
39075;BME280;24826;52.070;20.970;2023-03-03T16:45:40;61506.03;;;-147.04;100.00
39075;BME280;24826;52.070;20.970;2023-03-03T16:51:34;61506.03;;;-147.04;100.00
39075;BME280;24826;52.070;20.970;2023-03-03T16:54:38;61472.22;;;-147.04;100.00
39075;BME280;24826;52.070;20.970;2023-03-03T17:00:29;61512.00;;;-147.04;100.00
39075;BME280;24826;52.070;20.970;2023-03-03T17:12:35;61504.03;;;-147.04;100.00
39075;BME280;24826;52.070;20.970;2023-03-03T17:25:12;61512.00;;;-147.04;100.00
39075;BME280;24826;52.070;20.970;2023-03-03T17:28:17;61508.03;;;-147.04;100.00
39075;BME280;24826;52.070;20.970;2023-03-03T17:31:28;61519.94;;;-147.04;100.00
39075;BME280;24826;52.070;20.970;2023-03-03T17:41:21;61502.06;;;-147.04;100.00
39075;BME280;24826;52.070;20.970;2023-03-03T17:44:28;61502.06;;;-147.04;100.00
39075;BME280;24826;52.070;20.970;2023-03-03T17:47:45;61519.94;;;-147.04;100.00
39075;BME280;24826;52.070;20.970;2023-03-03T17:50:55;61466.25;;;-147.04;100.00
39075;BME280;24826;52.070;20.970;2023-03-03T17:53:55;61496.09;;;-147.04;100.00
39075;BME280;24826;52.070;20.970;2023-03-03T18:00:14;61488.13;;;-147.04;100.00
39075;BME280;24826;52.070;20.970;2023-03-03T18:03:09;61519.94;;;-147.04;100.00
39075;BME280;24826;52.070;20.970;2023-03-03T18:06:41;61508.03;;;-147.04;100.00
39075;BME280;24826;52.070;20.970;2023-03-03T18:19:27;61498.09;;;-147.04;100.00
39075;BME280;24826;52.070;20.970;2023-03-03T18:22:40;61527.91;;;-147.04;100.00
39075;BME280;24826;52.070;20.970;2023-03-03T18:25:59;61504.03;;;-147.04;100.00